createdAt,value
2023-04-28T00:02:20.699Z,7.30
2023-04-28T00:04:43.361Z,6.87
2023-04-28T00:07:04.562Z,9.17
2023-04-28T00:09:25.519Z,8.13
2023-04-28T00:11:47.120Z,7.23
2023-04-28T00:14:07.944Z,7.53
2023-04-28T00:16:29.320Z,7.50
2023-04-28T00:18:51.090Z,7.40
2023-04-28T00:21:13.823Z,6.83
2023-04-28T00:23:35.387Z,6.40
2023-04-28T00:25:57.457Z,7.53
2023-04-28T00:28:32.842Z,7.00
2023-04-28T00:30:56.058Z,6.87
2023-04-28T00:33:17.482Z,7.33
2023-04-28T00:35:39.015Z,7.00
2023-04-28T00:38:01.676Z,8.10
2023-04-28T00:40:22.991Z,7.77
2023-04-28T00:42:44.428Z,8.40
2023-04-28T00:45:07.258Z,7.83
2023-04-28T00:47:28.596Z,7.53
2023-04-28T00:49:50.571Z,6.80
2023-04-28T00:52:11.888Z,6.93
2023-04-28T00:54:35.074Z,8.00
2023-04-28T00:56:56.226Z,7.73
2023-04-28T00:59:17.619Z,8.27
2023-04-28T01:01:38.889Z,7.40
2023-04-28T01:04:00.375Z,7.33
2023-04-28T01:06:22.104Z,7.07
2023-04-28T01:08:43.950Z,9.30
2023-04-28T01:11:06.945Z,7.83
2023-04-28T01:13:28.345Z,7.63
2023-04-28T01:15:49.732Z,6.80
2023-04-28T01:18:10.917Z,7.17
2023-04-28T01:20:32.074Z,7.37
2023-04-28T01:22:53.062Z,8.87
2023-04-28T01:25:15.769Z,8.40
2023-04-28T01:27:36.811Z,6.93
2023-04-28T01:29:58.504Z,6.77
2023-04-28T01:32:19.799Z,7.33
2023-04-28T01:34:41.328Z,7.00
2023-04-28T01:37:02.730Z,7.57
2023-04-28T01:39:24.187Z,6.80
2023-04-28T01:41:46.978Z,7.23
2023-04-28T01:44:08.524Z,7.23
2023-04-28T01:46:30.047Z,7.10
2023-04-28T01:48:51.153Z,8.30
2023-04-28T01:51:12.335Z,7.70
2023-04-28T01:53:33.553Z,9.10
2023-04-28T01:55:55.327Z,7.13
2023-04-28T01:58:17.928Z,7.07
2023-04-28T02:00:39.157Z,9.00
2023-04-28T02:03:00.469Z,6.73
2023-04-28T02:05:21.659Z,7.00
2023-04-28T02:07:43.065Z,7.43
2023-04-28T02:10:04.495Z,7.20
2023-04-28T02:12:25.476Z,6.70
2023-04-28T02:14:48.337Z,7.13
2023-04-28T02:17:09.850Z,7.30
2023-04-28T02:19:31.134Z,6.33
2023-04-28T02:21:52.394Z,7.57
2023-04-28T02:24:13.810Z,6.40
2023-04-28T02:26:35.286Z,6.93
2023-04-28T02:28:56.303Z,7.13
2023-04-28T02:31:19.098Z,7.30
2023-04-28T02:33:42.355Z,8.67
2023-04-28T02:36:03.911Z,7.70
2023-04-28T02:38:25.176Z,8.00
2023-04-28T02:40:46.989Z,8.37
2023-04-28T02:43:08.383Z,7.80
2023-04-28T02:45:29.646Z,8.27
2023-04-28T02:47:52.583Z,7.07
2023-04-28T02:50:13.822Z,7.33
2023-04-28T02:52:35.111Z,7.07
2023-04-28T02:54:57.737Z,6.97
2023-04-28T02:57:18.904Z,9.27
2023-04-28T02:59:40.197Z,7.33
2023-04-28T03:02:01.320Z,7.47
2023-04-28T03:04:24.183Z,7.20
2023-04-28T03:06:45.709Z,9.60
2023-04-28T03:09:06.820Z,6.97
2023-04-28T03:11:28.069Z,8.07
2023-04-28T03:13:49.435Z,7.00
2023-04-28T03:16:10.613Z,8.70
2023-04-28T03:18:31.895Z,7.83
2023-04-28T03:20:54.520Z,7.30
2023-04-28T03:23:15.644Z,7.53
2023-04-28T03:25:37.364Z,6.50
2023-04-28T03:27:59.102Z,7.20
2023-04-28T03:30:20.166Z,7.47
2023-04-28T03:32:42.214Z,8.07
2023-04-28T03:35:03.539Z,7.63
2023-04-28T03:37:26.256Z,7.90
2023-04-28T03:39:47.581Z,9.40
2023-04-28T03:42:08.863Z,8.07
2023-04-28T03:44:30.464Z,7.40
2023-04-28T03:46:51.401Z,8.27
2023-04-28T03:49:12.541Z,7.90
2023-04-28T03:51:34.317Z,9.10
2023-04-28T03:53:56.730Z,7.83
2023-04-28T03:56:17.932Z,9.20
2023-04-28T03:58:39.196Z,8.67
2023-04-28T04:01:00.948Z,7.50
2023-04-28T04:03:26.492Z,8.87
2023-04-28T04:05:48.260Z,7.97
2023-04-28T04:08:09.461Z,7.53
2023-04-28T04:10:32.257Z,12.17
2023-04-28T04:12:53.592Z,7.67
2023-04-28T04:15:14.823Z,7.77
2023-04-28T04:17:35.836Z,9.10
2023-04-28T04:19:57.025Z,7.83
2023-04-28T04:22:18.315Z,9.37
2023-04-28T04:24:39.623Z,10.40
2023-04-28T04:27:02.273Z,8.37
2023-04-28T04:29:23.807Z,8.10
2023-04-28T04:31:45.661Z,9.60
2023-04-28T04:34:07.261Z,7.93
2023-04-28T04:36:28.763Z,8.73
2023-04-28T04:38:51.048Z,8.10
2023-04-28T04:41:13.075Z,7.70
2023-04-28T04:43:35.894Z,7.13
2023-04-28T04:45:57.166Z,8.13
2023-04-28T04:48:18.351Z,7.70
2023-04-28T04:50:39.664Z,7.97
2023-04-28T04:53:00.896Z,7.73
2023-04-28T04:55:22.371Z,8.20
2023-04-28T04:57:43.444Z,8.40
2023-04-28T05:00:06.486Z,8.63
2023-04-28T05:02:27.685Z,8.17
2023-04-28T05:04:49.024Z,7.93
2023-04-28T05:07:10.176Z,8.50
2023-04-28T05:09:32.087Z,9.00
2023-04-28T05:11:53.948Z,9.23
2023-04-28T05:14:15.329Z,9.47
2023-04-28T05:16:38.214Z,9.90
2023-04-28T05:18:59.318Z,8.77
2023-04-28T05:21:20.573Z,8.50
2023-04-28T05:23:41.695Z,9.00
2023-04-28T05:26:04.061Z,9.33
2023-04-28T05:28:25.420Z,8.67
2023-04-28T05:30:46.382Z,10.20
2023-04-28T05:33:09.123Z,9.13
2023-04-28T05:35:31.538Z,9.13
2023-04-28T05:37:52.874Z,9.90
2023-04-28T05:40:14.705Z,10.57
2023-04-28T05:42:36.116Z,9.53
2023-04-28T05:44:57.402Z,9.40
2023-04-28T05:47:18.971Z,8.67
2023-04-28T05:49:41.587Z,8.80
2023-04-28T05:52:03.945Z,8.80
2023-04-28T05:54:25.164Z,9.03
2023-04-28T05:56:46.398Z,9.13
2023-04-28T05:59:07.660Z,9.13
2023-04-28T06:01:28.946Z,8.43
2023-04-28T06:03:50.460Z,8.47
2023-04-28T06:06:13.030Z,8.83
2023-04-28T06:08:34.365Z,9.27
2023-04-28T06:10:55.867Z,8.43
2023-04-28T06:13:17.058Z,8.80
2023-04-28T06:15:38.501Z,9.00
2023-04-28T06:18:00.118Z,10.07
2023-04-28T06:20:21.227Z,10.67
2023-04-28T06:22:44.239Z,10.17
2023-04-28T06:25:05.659Z,9.53
2023-04-28T06:27:26.751Z,9.87
2023-04-28T06:29:48.284Z,10.30
2023-04-28T06:32:09.449Z,11.00
2023-04-28T06:34:31.579Z,11.57
2023-04-28T06:36:52.557Z,11.90
2023-04-28T06:39:15.067Z,13.13
2023-04-28T06:41:36.344Z,11.17
2023-04-28T06:43:57.408Z,11.20
2023-04-28T06:46:18.622Z,11.80
2023-04-28T06:48:39.745Z,11.30
2023-04-28T06:51:01.344Z,10.80
2023-04-28T06:53:22.177Z,10.80
2023-04-28T06:55:45.028Z,10.50
2023-04-28T06:58:06.417Z,11.40
2023-04-28T07:00:27.569Z,9.57
2023-04-28T07:02:49.033Z,11.03
2023-04-28T07:05:10.340Z,11.50
2023-04-28T07:07:31.394Z,9.77
2023-04-28T07:09:53.647Z,9.17
2023-04-28T07:12:16.195Z,11.10
2023-04-28T07:14:37.381Z,9.00
2023-04-28T07:16:58.803Z,9.70
2023-04-28T07:19:20.593Z,11.30
2023-04-28T07:21:42.205Z,11.13
2023-04-28T07:24:03.236Z,10.87
2023-04-28T07:26:24.464Z,10.63
2023-04-28T07:28:46.998Z,9.80
2023-04-28T07:31:08.313Z,10.70
2023-04-28T07:33:29.462Z,10.13
2023-04-28T07:35:52.639Z,10.43
2023-04-28T07:38:14.616Z,10.80
2023-04-28T07:40:35.695Z,11.30
2023-04-28T07:42:56.848Z,12.03
2023-04-28T07:45:19.750Z,10.47
2023-04-28T07:47:40.957Z,12.40
2023-04-28T07:50:04.814Z,11.00
2023-04-28T07:52:26.161Z,10.33
2023-04-28T07:54:47.291Z,10.47
2023-04-28T07:57:08.540Z,10.23
2023-04-28T07:59:29.753Z,11.33
2023-04-28T08:01:52.328Z,10.13
2023-04-28T08:04:14.268Z,12.27
2023-04-28T08:06:36.288Z,11.13
2023-04-28T08:08:57.624Z,11.83
2023-04-28T08:11:18.732Z,10.37
2023-04-28T08:13:40.188Z,11.23
2023-04-28T08:16:01.779Z,12.97
2023-04-28T08:18:24.498Z,12.27
2023-04-28T08:20:46.090Z,12.57
2023-04-28T08:23:07.983Z,11.53
2023-04-28T08:25:29.326Z,12.10
2023-04-28T08:27:50.391Z,11.67
2023-04-28T08:30:12.038Z,11.37
2023-04-28T08:32:33.358Z,11.77
2023-04-28T08:34:55.852Z,12.77
2023-04-28T08:37:17.118Z,11.87
2023-04-28T08:39:38.595Z,15.83
2023-04-28T08:41:59.945Z,12.60
2023-04-28T08:44:23.518Z,13.13
2023-04-28T08:46:45.861Z,12.57
2023-04-28T08:49:08.855Z,13.37
2023-04-28T08:51:34.034Z,11.20
2023-04-28T08:56:19.984Z,16.93
2023-04-28T08:58:41.309Z,16.20
2023-04-28T09:01:04.614Z,13.80
2023-04-28T09:03:27.738Z,12.97
2023-04-28T09:05:49.215Z,13.80
2023-04-28T09:08:12.873Z,12.77
2023-04-28T09:10:34.016Z,13.47
2023-04-28T09:12:55.932Z,14.50
2023-04-28T09:15:26.824Z,10.67
2023-04-28T09:17:49.202Z,12.23
2023-04-28T09:20:20.305Z,13.03
2023-04-28T09:22:42.378Z,14.17
2023-04-28T09:25:13.388Z,11.47
2023-04-28T09:27:35.169Z,12.10
2023-04-28T09:29:56.374Z,13.37
2023-04-28T09:32:19.192Z,12.30
2023-04-28T09:34:45.305Z,11.20
2023-04-28T09:37:15.496Z,11.97
2023-04-28T09:39:36.381Z,11.83
2023-04-28T09:42:03.377Z,12.57
2023-04-28T09:44:24.587Z,11.70
2023-04-28T09:46:46.734Z,11.90
2023-04-28T09:49:08.700Z,12.17
2023-04-28T09:51:29.714Z,11.13
2023-04-28T09:53:52.913Z,11.30
2023-04-28T09:56:14.472Z,11.10
2023-04-28T09:58:41.252Z,11.57
2023-04-28T10:01:03.167Z,11.00
2023-04-28T10:03:27.598Z,11.47
2023-04-28T10:05:51.122Z,9.60
2023-04-28T10:08:13.361Z,10.87
2023-04-28T10:10:34.865Z,9.80
2023-04-28T10:12:56.877Z,10.30
2023-04-28T10:15:19.277Z,11.43
2023-04-28T10:17:40.535Z,9.00
2023-04-28T10:20:01.907Z,7.50
2023-04-28T10:22:33.377Z,6.23
2023-04-28T10:25:05.011Z,6.30
2023-04-28T10:27:30.247Z,5.30
2023-04-28T10:29:51.559Z,5.53
2023-04-28T10:32:25.994Z,4.63
2023-04-28T10:34:47.274Z,5.00
2023-04-28T10:37:08.223Z,3.70
2023-04-28T10:39:29.653Z,4.40
2023-04-28T10:41:50.947Z,3.20
2023-04-28T10:44:31.052Z,3.20
2023-04-28T10:47:02.847Z,3.20
2023-04-28T10:49:45.604Z,3.20
2023-04-28T10:52:30.393Z,3.70
2023-04-28T10:55:19.272Z,2.90
2023-04-28T10:57:42.869Z,2.93
2023-04-28T11:00:19.366Z,3.00
2023-04-28T11:02:44.225Z,2.70
2023-04-28T11:05:19.406Z,2.50
2023-04-28T11:07:40.899Z,3.00
2023-04-28T11:10:02.160Z,1.97
2023-04-28T11:12:23.477Z,2.20
2023-04-28T11:14:44.693Z,2.37
2023-04-28T11:17:06.512Z,2.60
2023-04-28T11:19:28.809Z,2.67
2023-04-28T11:21:51.918Z,2.70
2023-04-28T11:24:13.522Z,3.53
2023-04-28T11:26:38.193Z,2.53
2023-04-28T11:28:59.478Z,2.30
2023-04-28T11:31:23.559Z,2.50
2023-04-28T11:33:45.550Z,2.27
2023-04-28T11:36:07.157Z,2.00
2023-04-28T11:38:29.570Z,1.93
2023-04-28T11:40:57.711Z,2.10
2023-04-28T11:43:19.116Z,2.27
2023-04-28T11:45:40.501Z,1.70
2023-04-28T11:48:06.146Z,1.90
2023-04-28T11:50:36.590Z,2.10
2023-04-28T11:52:57.990Z,1.80
2023-04-28T11:55:20.766Z,2.13
2023-04-28T11:57:41.959Z,1.93
2023-04-28T12:00:21.697Z,1.67
2023-04-28T12:02:42.906Z,2.00
2023-04-28T12:05:06.680Z,2.37
2023-04-28T12:07:28.071Z,1.70
2023-04-28T12:09:50.218Z,1.60
2023-04-28T12:12:13.730Z,1.77
2023-04-28T12:14:54.200Z,1.60
2023-04-28T12:17:24.014Z,2.40
2023-04-28T12:19:46.098Z,5.03
2023-04-28T12:22:07.920Z,4.00
2023-04-28T12:24:29.332Z,2.20
2023-04-28T12:26:50.575Z,1.90
2023-04-28T12:29:34.527Z,2.00
2023-04-28T12:31:55.723Z,1.43
2023-04-28T12:34:17.024Z,1.50
2023-04-28T12:36:38.562Z,1.70
2023-04-28T12:38:59.883Z,1.60
2023-04-28T12:41:21.352Z,2.10
2023-04-28T12:43:44.514Z,2.00
2023-04-28T12:46:08.658Z,2.83
2023-04-28T12:48:30.617Z,2.00
2023-04-28T12:50:51.721Z,1.60
2023-04-28T12:53:12.963Z,1.60
2023-04-28T12:55:34.346Z,1.83
2023-04-28T12:57:55.992Z,1.20
2023-04-28T13:00:17.165Z,4.10
2023-04-28T13:02:40.193Z,1.90
2023-04-28T13:05:02.026Z,1.33
2023-04-28T13:07:23.338Z,4.83
2023-04-28T13:09:44.786Z,1.67
2023-04-28T13:12:06.125Z,1.90
2023-04-28T13:14:27.954Z,2.30
2023-04-28T13:16:49.762Z,1.90
2023-04-28T13:19:13.999Z,1.30
2023-04-28T13:21:36.579Z,1.30
2023-04-28T13:23:58.872Z,1.50
2023-04-28T13:26:20.647Z,1.30
2023-04-28T13:28:42.308Z,1.10
2023-04-28T13:31:03.199Z,1.20
2023-04-28T13:33:30.927Z,1.03
2023-04-28T13:35:53.390Z,1.20
2023-04-28T13:38:14.842Z,1.20
2023-04-28T13:40:35.811Z,1.60
2023-04-28T13:42:57.115Z,1.50
2023-04-28T13:45:19.622Z,2.03
2023-04-28T13:47:42.760Z,1.30
2023-04-28T13:50:04.085Z,1.10
2023-04-28T13:52:26.816Z,1.30
2023-04-28T13:54:48.562Z,1.10
2023-04-28T13:57:09.810Z,1.20
2023-04-28T13:59:31.229Z,2.93
2023-04-28T14:01:52.556Z,1.27
2023-04-28T14:04:13.769Z,1.47
2023-04-28T14:06:35.516Z,1.10
2023-04-28T14:08:59.267Z,1.30
2023-04-28T14:11:20.409Z,1.00
2023-04-28T14:13:41.753Z,1.10
2023-04-28T14:16:03.006Z,1.23
2023-04-28T14:18:24.480Z,1.40
2023-04-28T14:20:45.477Z,1.63
2023-04-28T14:23:07.425Z,2.30
2023-04-28T14:25:30.445Z,1.20
2023-04-28T14:27:51.784Z,1.30
2023-04-28T14:30:13.322Z,1.13
2023-04-28T14:32:34.429Z,1.10
2023-04-28T14:34:55.754Z,1.10
2023-04-28T14:37:17.688Z,1.20
2023-04-28T14:39:40.125Z,1.00
2023-04-28T14:42:03.994Z,1.47
2023-04-28T14:44:25.203Z,1.27
2023-04-28T14:46:47.017Z,1.83
2023-04-28T14:49:09.376Z,1.23
2023-04-28T14:51:30.793Z,1.30
2023-04-28T14:53:52.169Z,1.63
2023-04-28T14:56:19.023Z,1.37
2023-04-28T14:58:42.097Z,1.47
2023-04-28T15:01:04.033Z,1.10
2023-04-28T15:03:25.735Z,1.10
2023-04-28T15:05:46.885Z,1.60
2023-04-28T15:08:08.273Z,1.30
2023-04-28T15:10:33.787Z,1.30
2023-04-28T15:12:54.707Z,1.20
2023-04-28T15:15:17.695Z,1.80
2023-04-28T15:17:38.901Z,1.40
2023-04-28T15:20:00.002Z,1.57
2023-04-28T15:22:21.822Z,1.30
2023-04-28T15:24:43.148Z,1.30
2023-04-28T15:27:04.916Z,1.67
2023-04-28T15:29:26.211Z,1.53
2023-04-28T15:31:49.168Z,1.70
2023-04-28T15:34:10.456Z,1.33
2023-04-28T15:36:32.447Z,1.60
2023-04-28T15:38:53.528Z,1.63
2023-04-28T15:41:15.381Z,1.87
2023-04-28T15:43:37.496Z,2.40
2023-04-28T15:45:58.883Z,2.33
2023-04-28T15:48:23.213Z,1.63
2023-04-28T15:50:44.775Z,1.70
2023-04-28T15:53:05.742Z,2.13
2023-04-28T15:55:27.083Z,1.97
2023-04-28T15:57:48.974Z,3.50
2023-04-28T16:00:11.318Z,1.90
2023-04-28T16:02:32.895Z,2.43
2023-04-28T16:04:55.876Z,2.47
2023-04-28T16:07:17.253Z,2.30
2023-04-28T16:09:38.714Z,1.53
2023-04-28T16:12:05.120Z,2.67
2023-04-28T16:14:26.563Z,1.40
2023-04-28T16:16:47.718Z,1.57
2023-04-28T16:19:08.941Z,1.60
2023-04-28T16:21:33.380Z,1.70
2023-04-28T16:23:54.391Z,1.97
2023-04-28T16:26:16.046Z,1.77
2023-04-28T16:28:37.163Z,1.30
2023-04-28T16:30:58.550Z,1.73
2023-04-28T16:33:19.969Z,1.67
2023-04-28T16:35:41.380Z,1.43
2023-04-28T16:38:04.227Z,1.60
2023-04-28T16:40:25.687Z,1.80
2023-04-28T16:42:46.640Z,2.10
2023-04-28T16:45:08.443Z,1.80
2023-04-28T16:47:31.165Z,2.20
2023-04-28T16:49:52.903Z,2.00
2023-04-28T16:52:14.436Z,2.20
2023-04-28T16:54:37.113Z,2.47
2023-04-28T16:56:58.437Z,2.53
2023-04-28T16:59:19.829Z,2.80
2023-04-28T17:01:41.143Z,3.10
2023-04-28T17:04:06.697Z,3.47
2023-04-28T17:06:29.318Z,2.50
2023-04-28T17:08:50.593Z,2.40
2023-04-28T17:11:16.863Z,2.30
2023-04-28T17:13:38.004Z,2.10
2023-04-28T17:16:00.349Z,1.90
2023-04-28T17:18:21.799Z,1.90
2023-04-28T17:20:43.463Z,2.83
2023-04-28T17:23:04.932Z,2.03
2023-04-28T17:25:26.394Z,1.80
2023-04-28T17:27:48.974Z,2.40
2023-04-28T17:30:11.344Z,2.33
2023-04-28T17:32:33.377Z,2.33
2023-04-28T17:34:55.092Z,2.70
2023-04-28T17:37:16.261Z,2.67
2023-04-28T17:39:37.552Z,2.70
2023-04-28T17:41:59.794Z,3.20
2023-04-28T17:44:22.458Z,3.00
2023-04-28T17:46:43.712Z,2.23
2023-04-28T17:49:05.339Z,2.20
2023-04-28T17:51:27.337Z,2.10
2023-04-28T17:53:48.804Z,3.53
2023-04-28T17:56:10.914Z,2.20
2023-04-28T17:58:33.544Z,3.07
2023-04-28T18:01:01.875Z,2.80
2023-04-28T18:03:23.210Z,3.03
2023-04-28T18:05:44.506Z,2.80
2023-04-28T18:08:05.846Z,3.20
2023-04-28T18:10:28.233Z,2.90
2023-04-28T18:12:50.981Z,2.90
2023-04-28T18:15:13.478Z,3.23
2023-04-28T18:17:36.181Z,5.67
2023-04-28T18:19:58.171Z,2.80
2023-04-28T18:22:19.086Z,3.10
2023-04-28T18:24:40.479Z,3.07
2023-04-28T18:27:02.161Z,3.47
2023-04-28T18:29:23.631Z,2.87
2023-04-28T18:31:44.878Z,3.10
2023-04-28T18:34:07.459Z,2.80
2023-04-28T18:36:28.759Z,3.03
2023-04-28T18:38:50.264Z,3.60
2023-04-28T18:41:16.158Z,3.60
2023-04-28T18:43:37.837Z,3.83
2023-04-28T18:46:02.589Z,3.47
2023-04-28T18:48:23.985Z,3.97
2023-04-28T18:50:47.842Z,4.10
2023-04-28T18:53:10.336Z,3.80
2023-04-28T18:55:33.352Z,4.07
2023-04-28T18:57:54.788Z,4.47
2023-04-28T19:00:16.202Z,4.40
2023-04-28T19:02:37.803Z,3.93
2023-04-28T19:05:00.931Z,4.50
2023-04-28T19:07:23.903Z,4.23
2023-04-28T19:09:44.868Z,5.10
2023-04-28T19:12:06.285Z,5.77
2023-04-28T19:14:27.213Z,4.73
2023-04-28T19:16:48.486Z,5.40
2023-04-28T19:19:09.923Z,4.83
2023-04-28T19:21:31.268Z,5.40
2023-04-28T19:23:54.304Z,5.63
2023-04-28T19:26:15.544Z,5.00
2023-04-28T19:28:36.914Z,4.97
2023-04-28T19:30:58.781Z,5.57
2023-04-28T19:33:20.183Z,6.87
2023-04-28T19:35:41.864Z,17.80
2023-04-28T19:38:02.826Z,10.27
2023-04-28T19:40:26.360Z,9.67
2023-04-28T19:42:47.678Z,6.97
2023-04-28T19:45:09.921Z,9.03
2023-04-28T19:47:33.829Z,6.90
2023-04-28T19:49:55.684Z,6.60
2023-04-28T19:52:17.197Z,8.77
2023-04-28T19:54:38.901Z,7.30
2023-04-28T19:57:02.159Z,7.37
2023-04-28T19:59:23.750Z,7.40
2023-04-28T20:01:45.777Z,7.77
2023-04-28T20:04:07.075Z,7.97
2023-04-28T20:06:28.654Z,8.30
2023-04-28T20:08:49.921Z,6.40
2023-04-28T20:11:11.659Z,6.90
2023-04-28T20:13:34.782Z,6.80
2023-04-28T20:15:55.940Z,6.70
2023-04-28T20:18:17.295Z,7.50
2023-04-28T20:20:38.660Z,7.33
2023-04-28T20:22:59.839Z,7.07
2023-04-28T20:25:21.337Z,7.83
2023-04-28T20:27:44.104Z,8.03
2023-04-28T20:30:08.154Z,8.10
2023-04-28T20:32:29.316Z,7.53
2023-04-28T20:34:50.516Z,6.97
2023-04-28T20:37:13.509Z,9.43
2023-04-28T20:39:34.579Z,6.90
2023-04-28T20:41:55.552Z,6.60
2023-04-28T20:44:17.020Z,7.13
2023-04-28T20:46:39.514Z,6.73
2023-04-28T20:49:00.883Z,6.90
2023-04-28T20:51:22.306Z,6.93
2023-04-28T20:53:43.900Z,5.93
2023-04-28T20:56:05.210Z,5.50
2023-04-28T20:58:26.493Z,7.60
2023-04-28T21:00:47.865Z,8.43
2023-04-28T21:03:15.463Z,9.80
2023-04-28T21:05:36.964Z,15.00
2023-04-28T21:07:58.201Z,6.13
2023-04-28T21:10:19.440Z,11.53
2023-04-28T21:12:41.388Z,8.70
2023-04-28T21:15:02.627Z,8.70
2023-04-28T21:17:24.160Z,9.00
2023-04-28T21:19:46.839Z,7.77
2023-04-28T21:22:08.265Z,7.63
2023-04-28T21:24:29.666Z,7.90
2023-04-28T21:26:51.096Z,7.17
2023-04-28T21:29:12.479Z,7.90
2023-04-28T21:31:33.927Z,8.17
2023-04-28T21:33:55.187Z,8.10
2023-04-28T21:36:17.701Z,7.47
2023-04-28T21:38:39.076Z,7.60
2023-04-28T21:41:00.369Z,8.70
2023-04-28T21:43:22.836Z,8.37
2023-04-28T21:45:44.332Z,7.93
2023-04-28T21:48:07.892Z,8.20
2023-04-28T21:50:29.220Z,8.40
2023-04-28T21:52:51.974Z,7.67
2023-04-28T21:55:13.404Z,8.63
2023-04-28T21:57:34.901Z,7.90
2023-04-28T21:59:56.351Z,9.27
2023-04-28T22:02:17.981Z,7.33
2023-04-28T22:04:39.475Z,8.07
2023-04-28T22:07:01.151Z,8.33
2023-04-28T22:09:24.176Z,8.40
2023-04-28T22:11:45.353Z,8.37
2023-04-28T22:14:06.591Z,8.97
2023-04-28T22:16:28.097Z,8.13
2023-04-28T22:18:49.224Z,7.53
2023-04-28T22:21:11.205Z,8.87
2023-04-28T22:23:32.648Z,7.57
2023-04-28T22:25:58.261Z,10.00
2023-04-28T22:28:19.450Z,9.40
2023-04-28T22:30:40.834Z,10.33
2023-04-28T22:33:02.447Z,8.90
2023-04-28T22:35:24.031Z,10.83
2023-04-28T22:37:45.362Z,9.90
2023-04-28T22:40:08.545Z,10.30
2023-04-28T22:42:30.878Z,10.23
2023-04-28T22:44:52.089Z,9.20
2023-04-28T22:47:13.337Z,10.03
2023-04-28T22:49:34.712Z,8.97
2023-04-28T22:51:55.855Z,9.43
2023-04-28T22:54:17.312Z,8.73
2023-04-28T22:56:38.826Z,8.40
2023-04-28T22:59:01.446Z,8.67
2023-04-28T23:01:22.592Z,7.90
2023-04-28T23:03:44.561Z,7.47
2023-04-28T23:06:05.722Z,7.10
2023-04-28T23:08:27.416Z,6.73
2023-04-28T23:10:48.694Z,6.43
2023-04-28T23:13:09.963Z,6.40
2023-04-28T23:15:32.531Z,7.00
2023-04-28T23:17:53.880Z,6.17
2023-04-28T23:20:15.190Z,6.93
2023-04-28T23:22:36.129Z,6.97
2023-04-28T23:24:57.288Z,6.90
2023-04-28T23:27:18.741Z,6.70
2023-04-28T23:29:39.870Z,6.03
2023-04-28T23:32:02.616Z,7.53
2023-04-28T23:34:24.073Z,6.67
2023-04-28T23:36:45.082Z,6.47
2023-04-28T23:39:06.438Z,5.93
2023-04-28T23:41:28.007Z,6.93
2023-04-28T23:43:50.384Z,6.20
2023-04-28T23:46:12.043Z,6.90
2023-04-28T23:48:34.787Z,7.50
2023-04-28T23:50:56.463Z,5.63
2023-04-28T23:53:17.824Z,6.20
2023-04-28T23:55:38.931Z,5.60
2023-04-28T23:58:00.188Z,6.83
